Time;durP1;ratioP1;P1;durP2;ratioP2;P2;SDS_P1;SDS_P2;PMS_P1;PMS_P2;Temp;Humidity;BMP_temperature;BMP_pressure;BME280_temperature;BME280_humidity;BME280_pressure;Samples;Min_cycle;Max_cycle;Signal;HPM_P1;HPM_P2
2021/12/23 00:00:55;;;;;;;35.47;16.93;;;;;;;-2.42;100.00;96748.72;4965067;28;20222;-84
2021/12/23 00:03:22;;;;;;;33.40;16.83;;;;;;;-2.42;100.00;96742.59;4970419;28;20225;-84
2021/12/23 00:05:52;;;;;;;35.97;16.73;;;;;;;-2.54;100.00;96731.31;4973930;28;20295;-80
2021/12/23 00:08:21;;;;;;;35.07;17.07;;;;;;;-2.50;100.00;96734.53;4956708;28;20239;-83
2021/12/23 00:10:48;;;;;;;33.70;16.73;;;;;;;-2.47;100.00;96726.34;4969370;28;20211;-83
2021/12/23 00:13:15;;;;;;;35.70;16.47;;;;;;;-2.46;100.00;96726.16;4979099;28;20299;-83
2021/12/23 00:16:02;;;;;;;35.10;16.17;;;;;;;-2.43;100.00;96715.31;4971053;28;20229;-84
2021/12/23 00:18:46;;;;;;;38.87;18.63;;;;;;;-2.41;100.00;96723.97;4970576;28;20232;-84
2021/12/23 00:24:01;;;;;;;34.53;16.13;;;;;;;-2.42;100.00;96710.88;4981399;28;20212;-82
2021/12/23 00:26:30;;;;;;;33.23;16.27;;;;;;;-2.43;100.00;96710.03;4972991;28;20368;-82
2021/12/23 00:28:57;;;;;;;36.40;17.27;;;;;;;-2.45;100.00;96696.13;4963146;28;20227;-83
2021/12/23 00:31:24;;;;;;;36.97;16.27;;;;;;;-2.43;100.00;96688.88;4964900;28;20216;-83
2021/12/23 00:33:52;;;;;;;33.87;15.93;;;;;;;-2.48;100.00;96690.28;4962229;28;20282;-84
2021/12/23 00:36:19;;;;;;;32.83;15.67;;;;;;;-2.48;100.00;96685.84;4975638;28;20240;-84
2021/12/23 00:38:50;;;;;;;31.10;15.17;;;;;;;-2.43;100.00;96688.88;4959213;28;20598;-83
2021/12/23 00:41:19;;;;;;;36.93;16.07;;;;;;;-2.42;100.00;96689.72;4954917;28;20205;-83
2021/12/23 00:43:47;;;;;;;27.83;14.47;;;;;;;-2.45;100.00;96685.53;4962363;28;20216;-83
2021/12/23 00:46:14;;;;;;;37.67;16.73;;;;;;;-2.46;100.00;96675.94;4968663;28;20204;-84
2021/12/23 00:48:41;;;;;;;35.57;16.00;;;;;;;-2.44;100.00;96684.56;4963459;28;20216;-84
2021/12/23 00:51:09;;;;;;;34.27;16.23;;;;;;;-2.42;100.00;96698.47;4959621;28;20220;-83
2021/12/23 00:53:39;;;;;;;33.30;16.07;;;;;;;-2.39;100.00;96700.03;4961009;28;20219;-82
2021/12/23 00:56:06;;;;;;;32.77;16.57;;;;;;;-2.37;100.00;96698.03;4970239;28;20310;-83
2021/12/23 00:58:34;;;;;;;34.20;16.67;;;;;;;-2.39;100.00;96689.44;4967618;28;20214;-83
2021/12/23 01:01:02;;;;;;;31.83;15.93;;;;;;;-2.38;100.00;96702.50;4982321;28;20219;-83
2021/12/23 01:03:30;;;;;;;30.23;16.00;;;;;;;-2.39;100.00;96706.16;4964805;28;20213;-83
2021/12/23 01:05:57;;;;;;;29.83;15.07;;;;;;;-2.38;100.00;96705.13;4970618;28;20218;-84
2021/12/23 01:08:25;;;;;;;27.20;14.53;;;;;;;-2.41;100.00;96713.38;4966116;28;20207;-82
2021/12/23 01:10:56;;;;;;;29.10;14.43;;;;;;;-2.40;100.00;96722.16;4982287;28;20203;-83
2021/12/23 01:13:26;;;;;;;31.27;16.37;;;;;;;-2.46;100.00;96720.88;4966181;28;20278;-83
2021/12/23 01:16:01;;;;;;;34.50;16.33;;;;;;;-2.48;100.00;96733.44;4966396;28;20236;-82
2021/12/23 01:18:31;;;;;;;31.87;15.80;;;;;;;-2.47;100.00;96736.91;4968299;28;20266;-88
2021/12/23 01:21:15;;;;;;;29.43;14.20;;;;;;;-2.51;100.00;96731.06;4972508;28;20208;-88
2021/12/23 01:23:46;;;;;;;30.97;15.10;;;;;;;-2.57;100.00;96736.91;4973556;28;20266;-88
2021/12/23 01:26:17;;;;;;;33.67;16.03;;;;;;;-2.60;100.00;96745.13;4972782;28;20227;-88
2021/12/23 01:28:46;;;;;;;28.47;14.83;;;;;;;-2.58;100.00;96752.91;4986196;28;20220;-88
2021/12/23 01:31:14;;;;;;;30.83;15.73;;;;;;;-2.62;100.00;96746.22;4971689;28;20262;-88
2021/12/23 01:33:42;;;;;;;28.73;14.90;;;;;;;-2.57;100.00;96742.19;4975082;28;20276;-88
2021/12/23 01:36:09;;;;;;;31.90;15.30;;;;;;;-2.52;100.00;96747.06;4960225;28;20228;-88
2021/12/23 01:38:36;;;;;;;30.77;15.73;;;;;;;-2.50;100.00;96745.94;4962602;28;20395;-89
2021/12/23 01:41:04;;;;;;;33.37;15.67;;;;;;;-2.46;100.00;96749.97;4972035;28;20243;-87
2021/12/23 01:43:31;;;;;;;32.57;15.30;;;;;;;-2.41;100.00;96747.75;4963496;28;20239;-88
2021/12/23 01:45:58;;;;;;;30.23;14.90;;;;;;;-2.43;100.00;96752.34;4970111;28;20212;-87
2021/12/23 01:48:27;;;;;;;29.67;15.73;;;;;;;-2.47;100.00;96753.63;4969502;28;20216;-90
2021/12/23 01:50:54;;;;;;;33.47;16.17;;;;;;;-2.55;100.00;96753.44;4969116;28;20214;-88
2021/12/23 01:53:22;;;;;;;31.07;16.27;;;;;;;-2.49;100.00;96755.56;4968394;28;20219;-89
2021/12/23 01:55:49;;;;;;;31.07;16.23;;;;;;;-2.46;100.00;96752.63;4986441;28;20276;-88
2021/12/23 01:58:18;;;;;;;31.33;15.97;;;;;;;-2.47;100.00;96750.13;4964933;28;20216;-87
2021/12/23 02:00:48;;;;;;;33.97;16.10;;;;;;;-2.56;100.00;96741.22;4981550;28;20262;-88
2021/12/23 02:03:15;;;;;;;31.67;15.83;;;;;;;-2.65;100.00;96739.41;4973930;28;20212;-88
2021/12/23 02:05:44;;;;;;;36.87;16.70;;;;;;;-2.70;100.00;96739.00;4969966;28;20244;-87
2021/12/23 02:08:12;;;;;;;34.50;16.33;;;;;;;-2.78;100.00;96737.03;4982291;28;20238;-89
2021/12/23 02:10:42;;;;;;;34.13;16.87;;;;;;;-2.85;100.00;96730.66;4968674;28;20244;-88
2021/12/23 02:13:09;;;;;;;34.43;16.37;;;;;;;-2.89;100.00;96723.16;4975715;28;20216;-88
2021/12/23 02:15:36;;;;;;;33.47;16.43;;;;;;;-2.90;100.00;96721.47;4983034;28;20224;-89
2021/12/23 02:18:04;;;;;;;36.27;16.87;;;;;;;-2.83;100.00;96723.41;4970935;28;20239;-87
2021/12/23 02:20:34;;;;;;;33.73;16.27;;;;;;;-2.82;100.00;96697.84;4969114;28;20203;-88
2021/12/23 02:23:03;;;;;;;36.23;16.23;;;;;;;-2.85;100.00;96692.81;4966467;28;20211;-89
2021/12/23 02:25:30;;;;;;;33.10;15.90;;;;;;;-2.93;100.00;96682.09;4971045;28;20213;-88
2021/12/23 02:27:58;;;;;;;35.00;16.77;;;;;;;-3.01;100.00;96681.97;4968323;28;20240;-87
2021/12/23 02:30:28;;;;;;;34.37;16.00;;;;;;;-2.96;100.00;96674.44;4967208;28;20209;-89
2021/12/23 02:32:57;;;;;;;35.80;16.37;;;;;;;-2.98;100.00;96650.00;4983996;28;20209;-89
2021/12/23 02:35:26;;;;;;;30.43;15.83;;;;;;;-2.96;100.00;96634.81;4969352;28;20235;-89
2021/12/23 02:37:55;;;;;;;35.60;16.30;;;;;;;-3.00;100.00;96630.81;4961809;28;20211;-88
2021/12/23 02:40:30;;;;;;;34.47;16.87;;;;;;;-3.03;100.00;96620.50;4967463;28;20214;-88
2021/12/23 02:42:59;;;;;;;37.07;16.77;;;;;;;-2.95;100.00;96618.00;4972435;28;20223;-89
2021/12/23 02:45:26;;;;;;;33.07;16.17;;;;;;;-3.04;100.00;96603.81;4964922;28;20218;-89
2021/12/23 02:47:53;;;;;;;40.17;18.00;;;;;;;-3.03;100.00;96599.38;4968786;28;20299;-88
2021/12/23 02:50:20;;;;;;;37.57;16.30;;;;;;;-3.00;100.00;96596.47;4970773;28;20281;-89
2021/12/23 02:52:48;;;;;;;34.70;16.03;;;;;;;-3.00;100.00;96601.75;4967611;28;20205;-88
2021/12/23 02:55:19;;;;;;;38.63;16.83;;;;;;;-3.00;100.00;96589.38;4963262;28;20307;-89
2021/12/23 02:57:46;;;;;;;33.57;15.63;;;;;;;-2.94;100.00;96575.59;4963060;28;20213;-87
2021/12/23 03:00:14;;;;;;;33.27;15.60;;;;;;;-2.89;100.00;96570.69;4963164;28;20273;-88
2021/12/23 03:02:42;;;;;;;32.23;15.40;;;;;;;-2.85;100.00;96571.25;4964581;28;20208;-88
2021/12/23 03:05:10;;;;;;;40.53;15.83;;;;;;;-2.92;100.00;96562.25;4968136;28;20212;-88
2021/12/23 03:07:37;;;;;;;32.27;15.03;;;;;;;-2.93;100.00;96556.13;4969784;28;20212;-89
2021/12/23 03:10:07;;;;;;;34.83;15.70;;;;;;;-3.05;100.00;96547.50;4970653;28;20222;-88
2021/12/23 03:12:36;;;;;;;27.90;14.23;;;;;;;-2.96;100.00;96552.91;4963283;28;20215;-83
2021/12/23 03:15:04;;;;;;;30.03;15.13;;;;;;;-2.97;100.00;96551.25;4962319;28;20234;-83
2021/12/23 03:17:32;;;;;;;33.37;15.30;;;;;;;-2.91;100.00;96551.53;4962608;28;20226;-83
2021/12/23 03:19:59;;;;;;;26.30;14.10;;;;;;;-2.94;100.00;96550.97;4970598;28;20302;-83
2021/12/23 03:22:26;;;;;;;30.67;15.67;;;;;;;-2.88;100.00;96556.50;4959259;28;20275;-82
2021/12/23 03:24:53;;;;;;;32.27;15.83;;;;;;;-2.86;100.00;96544.00;4962795;28;20220;-83
2021/12/23 03:27:20;;;;;;;32.30;15.23;;;;;;;-2.88;100.00;96547.75;4975673;28;20274;-83
2021/12/23 03:29:49;;;;;;;34.13;15.03;;;;;;;-2.85;100.00;96544.84;4963785;28;20246;-83
2021/12/23 03:32:16;;;;;;;30.87;15.93;;;;;;;-2.79;100.00;96533.69;4968938;28;20270;-83
2021/12/23 03:34:43;;;;;;;32.20;15.50;;;;;;;-2.78;100.00;96535.34;4959533;28;20238;-88
2021/12/23 03:37:10;;;;;;;34.97;15.90;;;;;;;-2.78;100.00;96524.78;4967749;28;20228;-88
2021/12/23 03:39:38;;;;;;;35.53;16.90;;;;;;;-2.81;100.00;96514.53;4969939;28;20211;-89
2021/12/23 03:42:06;;;;;;;29.73;14.70;;;;;;;-2.85;100.00;96507.84;4964722;28;20226;-88
2021/12/23 03:44:33;;;;;;;30.23;14.93;;;;;;;-2.81;100.00;96509.25;4964793;28;20241;-88
2021/12/23 03:47:01;;;;;;;30.17;14.43;;;;;;;-2.79;100.00;96504.63;4962768;28;20454;-83
2021/12/23 03:49:29;;;;;;;33.70;16.23;;;;;;;-2.77;100.00;96513.25;4955638;28;20219;-82
2021/12/23 03:51:56;;;;;;;31.77;15.20;;;;;;;-2.76;100.00;96515.75;4965016;28;20212;-83
2021/12/23 03:54:23;;;;;;;33.50;15.77;;;;;;;-2.76;100.00;96528.13;4958866;28;20231;-83
2021/12/23 03:56:50;;;;;;;28.00;14.33;;;;;;;-2.79;100.00;96509.91;4965781;28;20239;-83
2021/12/23 03:59:17;;;;;;;29.93;14.93;;;;;;;-2.84;100.00;96504.22;4964348;28;20336;-83
2021/12/23 04:01:44;;;;;;;32.73;15.53;;;;;;;-2.90;100.00;96503.00;4966559;28;20286;-83
2021/12/23 04:04:13;;;;;;;30.93;15.37;;;;;;;-2.86;100.00;96506.19;4962112;28;20213;-83
2021/12/23 04:06:40;;;;;;;33.13;16.10;;;;;;;-2.85;100.00;96499.91;4971711;28;20200;-83
2021/12/23 04:09:07;;;;;;;33.77;15.50;;;;;;;-2.86;100.00;96493.81;4961971;28;20201;-89
2021/12/23 04:11:34;;;;;;;29.67;15.23;;;;;;;-2.86;100.00;96504.38;4969422;28;20212;-88
2021/12/23 04:14:02;;;;;;;32.97;15.60;;;;;;;-2.87;100.00;96497.41;4973233;28;20200;-89
2021/12/23 04:16:29;;;;;;;32.37;15.87;;;;;;;-2.90;100.00;96499.53;4971774;28;20228;-88
2021/12/23 04:18:56;;;;;;;29.30;14.93;;;;;;;-2.90;100.00;96502.16;4970245;28;20298;-89
2021/12/23 04:21:25;;;;;;;26.40;13.77;;;;;;;-2.93;100.00;96502.44;4973388;28;20272;-88
2021/12/23 04:23:52;;;;;;;32.07;15.13;;;;;;;-3.00;100.00;96493.44;4972729;28;20251;-86
2021/12/23 04:26:20;;;;;;;28.50;14.60;;;;;;;-3.02;100.00;96498.84;4990423;28;20196;-87
2021/12/23 04:28:47;;;;;;;26.53;14.23;;;;;;;-3.10;100.00;96477.59;4987286;28;20220;-88
2021/12/23 04:31:17;;;;;;;29.97;14.10;;;;;;;-3.06;100.00;96506.22;4963106;28;20200;-88
2021/12/23 04:33:45;;;;;;;28.83;14.73;;;;;;;-3.10;100.00;96494.28;4963617;28;20299;-89
2021/12/23 04:36:12;;;;;;;28.30;13.90;;;;;;;-3.13;100.00;96484.00;4964211;28;20247;-88
2021/12/23 04:38:43;;;;;;;26.80;13.20;;;;;;;-3.14;100.00;96492.88;4967650;28;20211;-88
2021/12/23 04:41:11;;;;;;;27.00;13.80;;;;;;;-3.18;100.00;96498.63;4969462;28;20299;-89
2021/12/23 04:43:38;;;;;;;26.07;11.43;;;;;;;-3.27;100.00;96496.81;4971552;28;20302;-90
2021/12/23 04:46:06;;;;;;;23.93;11.03;;;;;;;-3.29;100.00;96502.25;4967797;28;20913;-87
2021/12/23 04:48:34;;;;;;;27.40;13.03;;;;;;;-3.33;100.00;96492.94;4965392;28;20248;-88
2021/12/23 04:51:02;;;;;;;27.13;12.83;;;;;;;-3.32;100.00;96489.34;4963491;28;20208;-88
2021/12/23 04:53:29;;;;;;;26.47;12.70;;;;;;;-3.35;100.00;96486.13;4970096;28;20298;-83
2021/12/23 04:55:58;;;;;;;29.80;13.30;;;;;;;-3.37;100.00;96481.00;4963675;28;20231;-83
2021/12/23 04:58:25;;;;;;;28.03;12.77;;;;;;;-3.35;100.00;96488.78;4969700;28;20213;-83
2021/12/23 05:00:53;;;;;;;26.23;13.13;;;;;;;-3.33;100.00;96487.66;4981645;28;20203;-82
2021/12/23 05:03:23;;;;;;;23.20;11.67;;;;;;;-3.34;100.00;96491.28;4974717;28;20208;-83
2021/12/23 05:05:51;;;;;;;26.33;12.43;;;;;;;-3.43;100.00;96492.13;4969091;28;20214;-83
2021/12/23 05:08:19;;;;;;;30.13;13.47;;;;;;;-3.43;100.00;96492.13;4987257;28;20202;-82
2021/12/23 05:10:47;;;;;;;28.53;13.07;;;;;;;-3.42;100.00;96504.34;4968744;28;20317;-82
2021/12/23 05:13:15;;;;;;;23.43;11.70;;;;;;;-3.40;100.00;96507.66;4969321;28;20269;-82
2021/12/23 05:15:44;;;;;;;25.50;11.97;;;;;;;-3.26;100.00;96515.16;4968532;28;20215;-81
2021/12/23 05:18:11;;;;;;;27.70;11.53;;;;;;;-3.31;100.00;96522.66;4970232;28;20207;-82
2021/12/23 05:20:39;;;;;;;20.13;10.47;;;;;;;-3.34;100.00;96508.94;4985755;28;20209;-83
2021/12/23 05:23:06;;;;;;;24.13;11.87;;;;;;;-3.32;100.00;96515.75;4969515;28;20207;-82
2021/12/23 05:25:34;;;;;;;26.03;11.30;;;;;;;-3.30;100.00;96513.78;4980463;28;20303;-82
2021/12/23 05:28:01;;;;;;;25.83;11.73;;;;;;;-3.18;100.00;96520.56;4969470;28;20232;-82
2021/12/23 05:30:29;;;;;;;30.60;15.27;;;;;;;-3.22;100.00;96516.53;4968667;28;20209;-83
2021/12/23 05:32:57;;;;;;;33.33;14.50;;;;;;;-3.25;100.00;96522.13;4958946;28;20293;-82
2021/12/23 05:35:25;;;;;;;33.93;15.93;;;;;;;-3.30;100.00;96524.34;4965300;28;20428;-82
2021/12/23 05:37:54;;;;;;;30.27;15.40;;;;;;;-3.21;100.00;96531.41;4964917;28;20209;-82
2021/12/23 05:40:23;;;;;;;32.83;15.57;;;;;;;-3.22;100.00;96539.47;4966597;28;20221;-82
2021/12/23 05:42:51;;;;;;;32.13;15.53;;;;;;;-3.21;100.00;96539.34;4968752;28;20219;-83
2021/12/23 05:45:19;;;;;;;34.70;16.47;;;;;;;-3.22;100.00;96534.19;4969992;28;20205;-82
2021/12/23 05:47:48;;;;;;;34.63;16.10;;;;;;;-3.09;100.00;96545.31;4961627;28;20209;-83
2021/12/23 05:50:17;;;;;;;36.00;16.17;;;;;;;-3.06;100.00;96542.38;4965471;28;20277;-83
2021/12/23 05:52:44;;;;;;;36.47;16.27;;;;;;;-3.06;100.00;96553.75;4965902;28;20201;-82
2021/12/23 05:55:13;;;;;;;34.27;17.00;;;;;;;-3.07;100.00;96543.38;4961616;28;20208;-82
2021/12/23 05:57:41;;;;;;;34.43;16.40;;;;;;;-3.10;100.00;96541.00;4972711;28;20244;-83
2021/12/23 06:00:12;;;;;;;36.00;16.30;;;;;;;-3.06;100.00;96548.47;4960504;28;20210;-82
2021/12/23 06:02:39;;;;;;;33.90;16.30;;;;;;;-2.99;100.00;96547.94;4958102;28;20216;-81
2021/12/23 06:05:09;;;;;;;34.20;16.03;;;;;;;-2.88;100.00;96553.88;4979048;28;20272;-81
2021/12/23 06:07:36;;;;;;;38.47;17.93;;;;;;;-2.79;100.00;96539.81;4969622;28;20201;-82
2021/12/23 06:10:04;;;;;;;37.20;16.90;;;;;;;-2.76;100.00;96549.25;4971803;28;20209;-82
2021/12/23 06:12:32;;;;;;;36.17;16.97;;;;;;;-2.77;100.00;96543.16;4972028;28;20213;-82
2021/12/23 06:14:59;;;;;;;37.03;16.97;;;;;;;-2.71;100.00;96542.56;4969028;28;20215;-82
2021/12/23 06:17:26;;;;;;;39.47;17.43;;;;;;;-2.63;100.00;96533.91;4971128;28;20228;-82
2021/12/23 06:19:53;;;;;;;40.17;17.07;;;;;;;-2.53;100.00;96542.66;4966890;28;20273;-82
2021/12/23 06:22:22;;;;;;;37.30;15.87;;;;;;;-2.46;100.00;96545.53;4972000;28;20259;-82
2021/12/23 06:24:50;;;;;;;38.13;18.00;;;;;;;-2.44;100.00;96536.50;4977027;28;20218;-82
2021/12/23 06:27:18;;;;;;;35.23;16.37;;;;;;;-2.45;100.00;96539.28;4968413;28;20258;-82
2021/12/23 06:29:45;;;;;;;36.53;17.07;;;;;;;-2.49;100.00;96557.25;4963709;28;20284;-81
2021/12/23 06:32:13;;;;;;;32.57;17.07;;;;;;;-2.47;100.00;96542.09;4960614;28;20207;-87
2021/12/23 06:34:40;;;;;;;36.27;16.97;;;;;;;-2.48;100.00;96540.41;4974062;28;20232;-86
2021/12/23 06:37:08;;;;;;;33.43;16.83;;;;;;;-2.59;100.00;96556.44;4967928;28;20286;-87
2021/12/23 06:39:38;;;;;;;32.60;15.60;;;;;;;-2.53;100.00;96549.75;4973173;28;20293;-87
2021/12/23 06:42:06;;;;;;;37.53;17.17;;;;;;;-2.62;100.00;96546.16;4971075;28;20217;-85
2021/12/23 06:44:33;;;;;;;40.00;18.47;;;;;;;-2.64;100.00;96564.00;4971954;28;20225;-87
2021/12/23 06:47:00;;;;;;;33.63;16.60;;;;;;;-2.57;100.00;96564.25;4964929;28;20203;-86
2021/12/23 06:49:31;;;;;;;35.47;17.07;;;;;;;-2.57;100.00;96559.78;4965641;28;20226;-86
2021/12/23 06:51:59;;;;;;;35.23;16.20;;;;;;;-2.67;100.00;96559.81;4961842;28;20294;-87
2021/12/23 06:54:27;;;;;;;41.17;18.13;;;;;;;-2.65;100.00;96559.69;4968682;28;20214;-87
2021/12/23 06:56:56;;;;;;;37.20;17.07;;;;;;;-2.65;100.00;96551.75;4969060;28;20223;-86
2021/12/23 06:59:23;;;;;;;35.00;15.53;;;;;;;-2.69;100.00;96551.19;4986397;28;20200;-87
2021/12/23 07:01:50;;;;;;;35.40;16.43;;;;;;;-2.71;100.00;96555.78;4965987;28;20226;-85
2021/12/23 07:04:18;;;;;;;31.93;15.33;;;;;;;-2.72;100.00;96543.53;4965324;28;20200;-87
2021/12/23 07:06:58;;;;;;;35.17;16.30;;;;;;;-2.77;100.00;96555.53;4990824;28;20299;-86
2021/12/23 07:09:25;;;;;;;36.47;16.63;;;;;;;-2.80;100.00;96553.16;4980128;28;20243;-86
2021/12/23 07:11:52;;;;;;;35.40;16.27;;;;;;;-2.80;100.00;96545.22;4967388;28;20216;-88
2021/12/23 07:14:21;;;;;;;34.67;16.80;;;;;;;-2.81;100.00;96541.78;4959458;28;20316;-86
2021/12/23 07:16:48;;;;;;;34.00;16.70;;;;;;;-2.77;100.00;96548.44;4966542;28;20251;-87
2021/12/23 07:19:15;;;;;;;32.27;15.37;;;;;;;-2.87;100.00;96542.34;4960295;28;20200;-87
2021/12/23 07:21:42;;;;;;;32.80;15.63;;;;;;;-2.91;100.00;96545.41;4968048;28;20214;-86
2021/12/23 07:24:09;;;;;;;36.63;16.13;;;;;;;-2.94;100.00;96543.88;4965997;28;20297;-86
2021/12/23 07:26:36;;;;;;;34.07;17.00;;;;;;;-2.99;100.00;96532.09;4964437;28;20259;-85
2021/12/23 07:29:03;;;;;;;37.77;18.70;;;;;;;-2.99;100.00;96526.81;4967405;28;20234;-87
2021/12/23 07:31:32;;;;;;;34.43;16.03;;;;;;;-3.03;100.00;96533.34;4958468;28;20245;-87
2021/12/23 07:33:59;;;;;;;32.83;15.40;;;;;;;-3.00;100.00;96540.97;4967047;28;20218;-85
2021/12/23 07:36:27;;;;;;;35.37;16.50;;;;;;;-3.05;100.00;96529.03;4968948;28;20233;-85
2021/12/23 07:38:56;;;;;;;35.93;16.07;;;;;;;-3.01;100.00;96520.81;4972786;28;20216;-87
2021/12/23 07:41:25;;;;;;;31.97;15.60;;;;;;;-2.93;100.00;96515.66;4954084;28;20303;-86
2021/12/23 07:44:10;;;;;;;34.77;15.87;;;;;;;-2.93;100.00;96511.22;4973785;28;20214;-85
2021/12/23 07:46:39;;;;;;;32.37;16.57;;;;;;;-2.98;100.00;96502.88;4982915;28;20215;-84
2021/12/23 07:49:07;;;;;;;33.43;16.40;;;;;;;-2.93;100.00;96510.38;4974811;28;20204;-86
2021/12/23 07:51:34;;;;;;;40.70;20.97;;;;;;;-3.01;100.00;96507.63;4971023;28;20236;-86
2021/12/23 07:54:01;;;;;;;39.87;20.20;;;;;;;-3.06;100.00;96489.53;4970917;28;20232;-85
2021/12/23 07:56:29;;;;;;;39.23;19.00;;;;;;;-3.11;100.00;96479.41;4966377;28;20217;-85
2021/12/23 07:58:56;;;;;;;39.00;18.63;;;;;;;-3.04;100.00;96498.16;4966173;28;20220;-88
2021/12/23 08:01:23;;;;;;;38.10;18.07;;;;;;;-3.08;100.00;96497.63;4970028;28;20214;-88
2021/12/23 08:03:52;;;;;;;37.63;17.47;;;;;;;-3.11;100.00;96494.44;4965316;28;20245;-85
2021/12/23 08:06:19;;;;;;;40.10;18.57;;;;;;;-3.08;100.00;96481.78;4970012;28;20218;-88
2021/12/23 08:08:46;;;;;;;40.13;19.00;;;;;;;-3.07;100.00;96483.44;4981521;28;20216;-84
2021/12/23 08:11:13;;;;;;;38.67;18.23;;;;;;;-3.05;100.00;96486.75;4966735;28;20201;-85
2021/12/23 08:13:40;;;;;;;34.67;16.90;;;;;;;-2.95;100.00;96491.19;4971874;28;20208;-85
2021/12/23 08:16:07;;;;;;;41.10;17.10;;;;;;;-2.95;100.00;96483.25;4988791;28;20214;-85
2021/12/23 08:18:35;;;;;;;37.97;17.00;;;;;;;-2.91;100.00;96500.50;4973974;28;20261;-86
2021/12/23 08:21:03;;;;;;;35.80;17.17;;;;;;;-2.96;100.00;96484.22;4959641;28;20210;-84
2021/12/23 08:23:30;;;;;;;34.03;17.13;;;;;;;-3.00;100.00;96470.50;4967908;28;20211;-84
2021/12/23 08:26:00;;;;;;;37.13;17.43;;;;;;;-2.98;100.00;96488.84;4965011;28;20274;-85
2021/12/23 08:28:27;;;;;;;36.30;17.23;;;;;;;-2.87;100.00;96492.13;4969668;28;20216;-85
2021/12/23 08:30:55;;;;;;;32.40;17.23;;;;;;;-2.94;100.00;96491.03;4969104;28;20207;-85
2021/12/23 08:33:22;;;;;;;39.87;17.40;;;;;;;-2.91;100.00;96496.06;4973745;28;20231;-85
2021/12/23 08:35:49;;;;;;;39.60;18.50;;;;;;;-2.90;100.00;96497.72;4962509;28;20325;-86
2021/12/23 08:38:18;;;;;;;32.93;15.60;;;;;;;-2.91;100.00;96496.06;4964149;28;20548;-85
2021/12/23 08:40:45;;;;;;;32.20;16.40;;;;;;;-2.87;100.00;96509.78;4989855;28;20204;-86
2021/12/23 08:43:13;;;;;;;36.93;17.53;;;;;;;-2.84;100.00;96514.81;4970550;28;20228;-86
2021/12/23 08:45:41;;;;;;;35.70;17.90;;;;;;;-2.80;100.00;96510.88;4969502;28;20259;-85
2021/12/23 08:48:08;;;;;;;44.90;20.07;;;;;;;-2.76;100.00;96522.84;4983681;28;20210;-85
2021/12/23 08:50:35;;;;;;;41.00;20.80;;;;;;;-2.82;100.00;96526.06;4964280;28;20266;-84
2021/12/23 08:53:04;;;;;;;39.93;19.47;;;;;;;-2.81;100.00;96522.44;4956970;28;20209;-85
2021/12/23 08:55:33;;;;;;;43.70;20.07;;;;;;;-2.76;100.00;96525.47;4958276;28;20217;-81
2021/12/23 08:58:04;;;;;;;43.50;19.37;;;;;;;-2.73;100.00;96531.31;4957063;28;20226;-81
2021/12/23 09:00:31;;;;;;;42.63;20.30;;;;;;;-2.69;100.00;96523.91;4965397;28;20223;-81
2021/12/23 09:02:58;;;;;;;40.00;18.27;;;;;;;-2.68;100.00;96512.38;4960180;28;20213;-82
2021/12/23 09:05:26;;;;;;;37.63;17.10;;;;;;;-2.65;100.00;96522.66;4987336;28;20211;-80
2021/12/23 09:07:53;;;;;;;36.07;17.97;;;;;;;-2.58;100.00;96526.41;4958195;28;20212;-81
2021/12/23 09:10:21;;;;;;;37.97;17.43;;;;;;;-2.57;100.00;96524.59;4961016;28;20208;-80
2021/12/23 09:12:50;;;;;;;34.67;17.07;;;;;;;-2.56;100.00;96516.53;4965688;28;20290;-81
2021/12/23 09:15:19;;;;;;;36.10;17.23;;;;;;;-2.44;100.00;96520.63;4971079;28;20325;-80
2021/12/23 09:17:47;;;;;;;38.00;16.77;;;;;;;-2.34;100.00;96537.28;4958992;28;20393;-81
2021/12/23 09:20:17;;;;;;;37.10;17.60;;;;;;;-2.26;100.00;96527.78;4954849;28;20206;-82
2021/12/23 09:22:46;;;;;;;37.43;17.23;;;;;;;-2.24;100.00;96515.25;4963017;28;20313;-81
2021/12/23 09:25:23;;;;;;;44.67;18.60;;;;;;;-1.97;100.00;96531.13;4970575;28;20268;-82
2021/12/23 09:28:03;;;;;;;38.53;17.67;;;;;;;-1.71;100.00;96510.06;4979635;28;20227;-83
2021/12/23 09:33:17;;;;;;;33.57;17.47;;;;;;;-1.81;100.00;96504.81;4965402;28;20237;-82
2021/12/23 09:35:45;;;;;;;32.77;16.83;;;;;;;-1.74;100.00;96508.53;4965785;28;20229;-82
2021/12/23 09:38:12;;;;;;;35.37;16.77;;;;;;;-1.70;100.00;96501.13;4968144;28;20294;-83
2021/12/23 09:40:40;;;;;;;29.60;16.00;;;;;;;-1.66;100.00;96510.41;4952734;28;20240;-83
2021/12/23 09:43:10;;;;;;;34.93;16.87;;;;;;;-1.69;100.00;96508.91;4962785;28;20205;-82
2021/12/23 09:45:40;;;;;;;32.40;16.57;;;;;;;-1.61;100.00;96502.84;4967859;28;20223;-83
2021/12/23 09:48:08;;;;;;;35.73;17.00;;;;;;;-1.54;100.00;96499.47;4963813;28;20277;-83
2021/12/23 09:50:38;;;;;;;32.93;16.43;;;;;;;-1.55;100.00;96492.50;4951989;28;20232;-82
2021/12/23 09:53:09;;;;;;;32.17;16.47;;;;;;;-1.42;100.00;96509.81;4954930;28;20205;-83
2021/12/23 09:55:38;;;;;;;29.13;15.13;;;;;;;-1.29;100.00;96516.41;4964258;28;20213;-84
2021/12/23 09:58:08;;;;;;;36.10;15.30;;;;;;;-1.32;100.00;96499.97;4961037;28;20224;-84
2021/12/23 10:00:38;;;;;;;33.97;16.27;;;;;;;-1.24;100.00;96497.38;4960144;28;20209;-84
2021/12/23 10:03:07;;;;;;;30.03;15.83;;;;;;;-1.07;100.00;96499.16;4963593;28;20210;-84
2021/12/23 10:05:37;;;;;;;30.40;15.57;;;;;;;-0.94;100.00;96494.31;4964313;28;20208;-84
2021/12/23 10:08:06;;;;;;;31.07;15.67;;;;;;;-0.85;100.00;96490.69;4964576;28;20207;-85
2021/12/23 10:10:37;;;;;;;30.00;15.33;;;;;;;-0.68;100.00;96491.63;4966723;28;20208;-86
2021/12/23 10:26:52;;;;;;;28.57;14.93;;;;;;;-0.45;100.00;96489.25;4967415;28;20300;-86
2021/12/23 10:33:07;;;;;;;22.67;12.47;;;;;;;0.49;100.00;96483.72;4963406;28;20208;-83
2021/12/23 10:38:26;;;;;;;25.97;13.03;;;;;;;0.97;100.00;96466.94;4964803;28;20234;-83
2021/12/23 10:40:58;;;;;;;24.90;13.60;;;;;;;1.13;100.00;96466.91;4960043;28;20208;-83
2021/12/23 10:43:29;;;;;;;24.50;12.87;;;;;;;1.29;100.00;96456.25;4962032;28;20247;-81
2021/12/23 10:45:59;;;;;;;24.47;11.70;;;;;;;1.47;100.00;96456.88;4961076;28;20212;-81
2021/12/23 10:48:31;;;;;;;25.57;12.93;;;;;;;1.63;100.00;96450.66;4968860;28;20210;-81
2021/12/23 10:51:03;;;;;;;27.93;12.47;;;;;;;1.81;100.00;96429.94;4957214;28;20293;-81
2021/12/23 10:53:51;;;;;;;23.07;12.40;;;;;;;2.12;100.00;96429.13;4967762;28;20220;-82
2021/12/23 10:59:15;;;;;;;21.23;13.00;;;;;;;2.44;95.39;96426.25;4958241;28;20264;-82
2021/12/23 11:02:28;;;;;;;21.90;11.60;;;;;;;2.45;95.81;96419.06;4967301;28;20236;-81
2021/12/23 11:05:10;;;;;;;33.87;13.33;;;;;;;2.54;96.48;96413.50;4966347;28;20367;-82
2021/12/23 11:07:49;;;;;;;24.33;12.30;;;;;;;2.54;95.63;96415.34;4956376;28;20225;-81
2021/12/23 11:10:34;;;;;;;24.23;12.53;;;;;;;2.62;95.49;96409.94;4966178;28;20232;-82
2021/12/23 11:38:28;;;;;;;22.93;11.63;;;;;;;4.21;82.96;96370.22;4964773;28;20232;-81
2021/12/23 11:40:59;;;;;;;21.97;11.53;;;;;;;4.17;82.43;96351.88;4965075;28;20205;-81
2021/12/23 11:43:48;;;;;;;29.87;12.17;;;;;;;4.04;84.88;96345.56;4970309;28;20217;-81
2021/12/23 11:46:16;;;;;;;21.67;12.40;;;;;;;4.11;83.99;96354.47;4972832;28;20295;-83
2021/12/23 11:48:46;;;;;;;22.70;12.47;;;;;;;3.96;83.71;96341.19;4972364;28;20381;-83
2021/12/23 11:51:20;;;;;;;19.17;10.97;;;;;;;3.75;83.43;96333.94;4961296;28;20204;-83
2021/12/23 11:53:49;;;;;;;34.13;12.40;;;;;;;4.14;85.26;96325.53;4975284;28;20323;-84
2021/12/23 11:56:19;;;;;;;22.00;11.33;;;;;;;4.68;82.69;96310.81;4957231;28;20263;-84
2021/12/23 11:58:48;;;;;;;29.27;12.63;;;;;;;4.70;80.09;96322.94;4966743;28;20221;-84
2021/12/23 12:01:19;;;;;;;21.37;11.80;;;;;;;4.38;80.67;96305.63;4973192;28;20212;-84
2021/12/23 12:03:56;;;;;;;22.07;11.17;;;;;;;4.06;82.04;96296.28;4967810;28;20217;-83
2021/12/23 12:06:26;;;;;;;27.67;12.33;;;;;;;4.31;83.09;96303.91;4965807;28;20441;-84
2021/12/23 12:08:57;;;;;;;27.80;12.20;;;;;;;4.24;81.63;96308.38;4972957;28;20201;-83
2021/12/23 12:11:26;;;;;;;22.03;11.63;;;;;;;3.90;82.43;96304.56;4970400;28;20251;-82
2021/12/23 12:13:53;;;;;;;50.63;13.40;;;;;;;3.56;84.51;96305.19;4960269;28;20251;-82